Social login voor leden:

1. METAR EBOS

METAR EBOS 231550Z 24033G46KT 9999 FEW030 09/03 Q0993 TEMPO 4500 SHRA

2. TAF EBOS

TAF EBOS 231550Z 24033G46KT 9999 FEW030 09/03 Q0993 TEMPO 4500 SHRA

3. NOTAMS EBOS

Klik hier voor een overzicht van de notams.

Deze pagina promoten

Noordzee Vliegclub - Nieuwpoortsesteenweg 947 8400 Oostende - Tel 059 30 04 79 - Dit e-mailadres wordt beveiligd tegen spambots. JavaScript dient ingeschakeld te zijn om het te bekijken.

 - Copyright 2016